createdAt,value
2023-03-29T00:00:22.506Z,6.89
2023-03-29T00:01:36.036Z,6.92
2023-03-29T00:02:22.385Z,6.94
2023-03-29T00:03:22.554Z,6.92
2023-03-29T00:04:22.361Z,6.92
2023-03-29T00:05:22.477Z,6.89
2023-03-29T00:06:22.357Z,6.92
2023-03-29T00:07:22.527Z,6.89
2023-03-29T00:08:22.304Z,6.91
2023-03-29T00:09:22.435Z,6.88
2023-03-29T00:10:22.258Z,6.87
2023-03-29T00:11:22.436Z,6.87
2023-03-29T00:12:22.234Z,6.91
2023-03-29T00:13:22.389Z,6.88
2023-03-29T00:14:22.206Z,6.87
2023-03-29T00:15:22.376Z,6.89
2023-03-29T00:16:22.247Z,6.91
2023-03-29T00:17:22.337Z,6.91
2023-03-29T00:18:22.192Z,6.89
2023-03-29T00:19:22.413Z,6.89
2023-03-29T00:20:22.121Z,6.92
2023-03-29T00:21:22.258Z,6.94
2023-03-29T00:22:22.128Z,6.92
2023-03-29T00:23:22.263Z,6.91
2023-03-29T00:24:22.136Z,6.88
2023-03-29T00:25:22.244Z,6.85
2023-03-29T00:26:22.071Z,6.85
2023-03-29T00:27:22.306Z,6.87
2023-03-29T00:28:22.053Z,6.87
2023-03-29T00:29:22.180Z,6.85
2023-03-29T00:30:22.037Z,6.85
2023-03-29T00:31:22.179Z,6.85
2023-03-29T00:32:21.981Z,6.84
2023-03-29T00:33:22.175Z,6.85
2023-03-29T00:34:21.997Z,6.84
2023-03-29T00:35:22.141Z,6.81
2023-03-29T00:36:22.152Z,6.81
2023-03-29T00:37:21.952Z,6.81
2023-03-29T00:38:22.025Z,6.80
2023-03-29T00:39:21.918Z,6.81
2023-03-29T00:40:22.229Z,6.81
2023-03-29T00:41:21.905Z,6.79
2023-03-29T00:42:22.068Z,6.80
2023-03-29T00:43:21.913Z,6.84
2023-03-29T00:44:22.115Z,6.85
2023-03-29T00:45:21.835Z,6.84
2023-03-29T00:46:21.925Z,6.84
2023-03-29T00:47:21.810Z,6.85
2023-03-29T00:48:21.902Z,6.85
2023-03-29T00:49:21.779Z,6.80
2023-03-29T00:50:21.853Z,6.79
2023-03-29T00:51:21.781Z,6.77
2023-03-29T00:52:21.816Z,6.71
2023-03-29T00:53:21.731Z,6.58
2023-03-29T00:54:21.825Z,6.44
2023-03-29T00:55:21.751Z,6.41
2023-03-29T00:56:21.889Z,6.40
2023-03-29T00:57:22.117Z,6.41
2023-03-29T00:58:21.657Z,6.43
2023-03-29T00:59:21.890Z,6.41
2023-03-29T01:00:21.654Z,6.41
2023-03-29T01:01:21.763Z,6.43
2023-03-29T01:02:21.670Z,6.43
2023-03-29T01:03:21.707Z,6.41
2023-03-29T01:04:21.683Z,6.41
2023-03-29T01:05:21.599Z,6.41
2023-03-29T01:06:21.754Z,6.43
2023-03-29T01:07:21.646Z,6.46
2023-03-29T01:08:21.517Z,6.44
2023-03-29T01:09:21.641Z,6.43
2023-03-29T01:10:21.482Z,6.43
2023-03-29T01:11:27.665Z,6.40
2023-03-29T01:12:21.554Z,6.37
2023-03-29T01:13:21.494Z,6.36
2023-03-29T01:14:21.656Z,6.31
2023-03-29T01:15:21.448Z,6.31
2023-03-29T01:16:21.691Z,6.27
2023-03-29T01:17:21.454Z,6.22
2023-03-29T01:18:21.487Z,6.17
2023-03-29T01:19:21.466Z,6.14
2023-03-29T01:20:21.494Z,6.12
2023-03-29T01:21:21.364Z,6.09
2023-03-29T01:22:21.554Z,6.11
2023-03-29T01:23:21.367Z,6.14
2023-03-29T01:24:21.527Z,6.12
2023-03-29T01:25:21.318Z,6.11
2023-03-29T01:26:21.445Z,6.12
2023-03-29T01:27:21.289Z,6.14
2023-03-29T01:28:21.394Z,6.14
2023-03-29T01:29:21.254Z,6.14
2023-03-29T01:30:21.366Z,6.15
2023-03-29T01:31:21.287Z,6.15
2023-03-29T01:32:21.445Z,6.15
2023-03-29T01:33:21.394Z,6.18
2023-03-29T01:34:21.198Z,6.21
2023-03-29T01:35:21.419Z,6.21
2023-03-29T01:36:21.148Z,6.22
2023-03-29T01:37:21.375Z,6.19
2023-03-29T01:38:21.250Z,6.18
2023-03-29T01:39:21.174Z,6.18
2023-03-29T01:40:21.321Z,6.18
2023-03-29T01:41:21.120Z,6.18
2023-03-29T01:42:21.262Z,6.18
2023-03-29T01:43:21.141Z,6.21
2023-03-29T01:44:21.252Z,6.18
2023-03-29T01:45:21.073Z,6.19
2023-03-29T01:46:21.086Z,6.21
2023-03-29T01:47:21.055Z,6.27
2023-03-29T01:48:21.110Z,6.28
2023-03-29T01:49:21.026Z,6.30
2023-03-29T01:50:21.192Z,6.31
2023-03-29T01:51:25.718Z,6.31
2023-03-29T01:52:20.949Z,6.33
2023-03-29T01:53:21.087Z,6.34
2023-03-29T01:54:21.036Z,6.37
2023-03-29T01:55:21.132Z,6.38
2023-03-29T01:56:20.878Z,6.38
2023-03-29T01:57:21.175Z,6.37
2023-03-29T01:58:20.922Z,6.36
2023-03-29T01:59:20.941Z,6.33
2023-03-29T02:00:21.024Z,6.33
2023-03-29T02:01:20.969Z,6.34
2023-03-29T02:02:20.862Z,6.33
2023-03-29T02:03:20.929Z,6.30
2023-03-29T02:04:20.964Z,6.28
2023-03-29T02:05:20.777Z,6.27
2023-03-29T02:06:20.864Z,6.27
2023-03-29T02:07:20.752Z,6.25
2023-03-29T02:08:20.930Z,6.22
2023-03-29T02:09:20.917Z,6.27
2023-03-29T02:10:20.776Z,6.25
2023-03-29T02:11:20.962Z,6.27
2023-03-29T02:12:20.728Z,6.27
2023-03-29T02:13:20.843Z,6.27
2023-03-29T02:14:20.719Z,6.28
2023-03-29T02:15:20.852Z,6.30
2023-03-29T02:16:20.738Z,6.33
2023-03-29T02:17:20.766Z,6.31
2023-03-29T02:18:20.637Z,6.36
2023-03-29T02:19:20.775Z,6.38
2023-03-29T02:20:20.662Z,6.41
2023-03-29T02:21:20.733Z,6.44
2023-03-29T02:22:20.613Z,6.51
2023-03-29T02:23:20.716Z,6.55
2023-03-29T02:24:20.574Z,6.58
2023-03-29T02:25:20.605Z,6.61
2023-03-29T02:26:20.567Z,6.67
2023-03-29T02:27:20.535Z,6.70
2023-03-29T02:28:20.561Z,6.76
2023-03-29T02:29:20.543Z,6.79
2023-03-29T02:30:20.589Z,6.77
2023-03-29T02:31:20.612Z,6.81
2023-03-29T02:32:20.601Z,6.85
2023-03-29T02:33:20.417Z,6.87
2023-03-29T02:34:20.522Z,6.88
2023-03-29T02:35:20.599Z,6.87
2023-03-29T02:36:20.414Z,6.87
2023-03-29T02:37:20.425Z,6.87
2023-03-29T02:38:20.461Z,6.88
2023-03-29T02:39:20.510Z,6.88
2023-03-29T02:40:20.433Z,6.88
2023-03-29T02:41:20.344Z,6.91
2023-03-29T02:42:20.577Z,6.94
2023-03-29T02:43:20.283Z,6.92
2023-03-29T02:44:20.406Z,6.94
2023-03-29T02:45:20.283Z,6.95
2023-03-29T02:46:20.563Z,6.95
2023-03-29T02:47:20.254Z,6.98
2023-03-29T02:48:20.489Z,7.02
2023-03-29T02:49:20.249Z,7.05
2023-03-29T02:50:20.409Z,7.05
2023-03-29T02:51:20.456Z,7.06
2023-03-29T02:52:20.411Z,7.07
2023-03-29T02:53:20.189Z,7.06
2023-03-29T02:54:20.376Z,7.05
2023-03-29T02:55:20.148Z,7.06
2023-03-29T02:56:20.240Z,7.05
2023-03-29T02:57:20.115Z,7.06
2023-03-29T02:58:20.299Z,7.06
2023-03-29T02:59:20.104Z,7.06
2023-03-29T03:00:20.329Z,7.05
2023-03-29T03:01:20.093Z,7.05
2023-03-29T03:02:20.223Z,7.05
2023-03-29T03:03:20.149Z,7.06
2023-03-29T03:04:20.253Z,7.05
2023-03-29T03:05:20.013Z,7.06
2023-03-29T03:06:20.100Z,7.05
2023-03-29T03:07:19.989Z,7.10
2023-03-29T03:08:20.142Z,7.12
2023-03-29T03:09:20.006Z,7.10
2023-03-29T03:10:20.076Z,7.12
2023-03-29T03:11:19.953Z,7.10
2023-03-29T03:12:20.162Z,7.15
2023-03-29T03:13:19.918Z,7.16
2023-03-29T03:14:20.064Z,7.15
2023-03-29T03:15:19.911Z,7.15
2023-03-29T03:16:20.193Z,7.16
2023-03-29T03:17:19.866Z,7.15
2023-03-29T03:18:19.991Z,7.17
2023-03-29T03:19:19.849Z,7.16
2023-03-29T03:20:19.937Z,7.17
2023-03-29T03:21:19.812Z,7.23
2023-03-29T03:22:20.024Z,7.25
2023-03-29T03:23:19.783Z,7.27
2023-03-29T03:24:19.930Z,7.25
2023-03-29T03:25:19.764Z,7.27
2023-03-29T03:26:19.986Z,7.28
2023-03-29T03:27:19.731Z,7.30
2023-03-29T03:28:19.840Z,7.32
2023-03-29T03:29:19.715Z,7.31
2023-03-29T03:30:19.856Z,7.32
2023-03-29T03:31:19.770Z,7.35
2023-03-29T03:32:19.810Z,7.39
2023-03-29T03:33:19.674Z,7.37
2023-03-29T03:34:19.779Z,7.42
2023-03-29T03:35:19.622Z,7.40
2023-03-29T03:36:19.792Z,7.46
2023-03-29T03:37:19.642Z,7.46
2023-03-29T03:38:19.705Z,7.43
2023-03-29T03:39:19.580Z,7.48
2023-03-29T03:40:19.856Z,7.48
2023-03-29T03:41:19.549Z,7.46
2023-03-29T03:42:19.673Z,7.45
2023-03-29T03:43:20.062Z,7.49
2023-03-29T03:44:19.659Z,7.49
2023-03-29T03:45:19.510Z,7.50
2023-03-29T03:46:19.737Z,7.49
2023-03-29T03:47:19.504Z,7.50
2023-03-29T03:48:19.624Z,7.50
2023-03-29T03:49:19.448Z,7.53
2023-03-29T03:50:19.586Z,7.52
2023-03-29T03:51:19.428Z,7.52
2023-03-29T03:52:19.500Z,7.50
2023-03-29T03:53:19.533Z,7.50
2023-03-29T03:54:19.423Z,7.50
2023-03-29T03:55:19.494Z,7.50
2023-03-29T03:56:19.382Z,7.50
2023-03-29T03:57:19.547Z,7.52
2023-03-29T03:58:19.557Z,7.50
2023-03-29T03:59:19.349Z,7.50
2023-03-29T04:00:19.684Z,7.52
2023-03-29T04:01:19.326Z,7.50
2023-03-29T04:02:19.400Z,7.52
2023-03-29T04:03:19.429Z,7.49
2023-03-29T04:04:19.508Z,7.50
2023-03-29T04:05:19.251Z,7.50
2023-03-29T04:06:19.397Z,7.49
2023-03-29T04:07:19.228Z,7.48
2023-03-29T04:08:19.410Z,7.49
2023-03-29T04:09:19.236Z,7.46
2023-03-29T04:10:19.414Z,7.46
2023-03-29T04:11:19.178Z,7.48
2023-03-29T04:12:19.226Z,7.48
2023-03-29T04:13:19.134Z,7.46
2023-03-29T04:14:19.346Z,7.46
2023-03-29T04:15:19.161Z,7.46
2023-03-29T04:16:19.296Z,7.46
2023-03-29T04:17:19.074Z,7.49
2023-03-29T04:18:19.228Z,7.48
2023-03-29T04:19:19.261Z,7.48
2023-03-29T04:20:19.094Z,7.49
2023-03-29T04:21:21.249Z,7.46
2023-03-29T04:22:19.045Z,7.49
2023-03-29T04:23:19.094Z,7.43
2023-03-29T04:24:19.114Z,7.42
2023-03-29T04:25:19.041Z,7.39
2023-03-29T04:26:19.121Z,7.34
2023-03-29T04:27:18.951Z,7.27
2023-03-29T04:28:19.149Z,7.24
2023-03-29T04:29:19.160Z,7.21
2023-03-29T04:30:18.999Z,7.16
2023-03-29T04:31:19.219Z,7.13
2023-03-29T04:32:18.954Z,7.12
2023-03-29T04:33:19.081Z,7.10
2023-03-29T04:34:18.898Z,7.10
2023-03-29T04:35:19.079Z,7.09
2023-03-29T04:36:18.914Z,7.09
2023-03-29T04:37:19.002Z,7.06
2023-03-29T04:38:19.224Z,7.05
2023-03-29T04:39:18.908Z,7.06
2023-03-29T04:40:18.833Z,7.03
2023-03-29T04:41:19.615Z,7.05
2023-03-29T04:42:18.798Z,7.03
2023-03-29T04:43:19.028Z,7.05
2023-03-29T04:44:18.830Z,7.03
2023-03-29T04:45:19.012Z,7.03
2023-03-29T04:46:18.846Z,7.05
2023-03-29T04:47:18.951Z,7.02
2023-03-29T04:48:18.724Z,7.06
2023-03-29T04:49:18.781Z,7.05
2023-03-29T04:50:18.702Z,7.06
2023-03-29T04:51:18.799Z,7.09
2023-03-29T04:52:18.730Z,7.13
2023-03-29T04:53:18.795Z,7.15
2023-03-29T04:54:18.658Z,7.17
2023-03-29T04:55:18.819Z,7.23
2023-03-29T04:56:18.697Z,7.30
2023-03-29T04:57:18.872Z,7.42
2023-03-29T04:58:21.487Z,7.46
2023-03-29T04:59:18.690Z,7.53
2023-03-29T05:00:18.640Z,7.60
2023-03-29T05:01:18.661Z,7.63
2023-03-29T05:02:19.103Z,7.72
2023-03-29T05:03:18.719Z,7.75
2023-03-29T05:04:18.635Z,7.79
2023-03-29T05:05:18.697Z,7.86
2023-03-29T05:06:19.876Z,7.89
2023-03-29T05:07:18.935Z,7.90
2023-03-29T05:08:18.655Z,7.93
2023-03-29T05:09:18.657Z,7.95
2023-03-29T05:10:18.489Z,7.93
2023-03-29T05:11:19.446Z,7.97
2023-03-29T05:12:18.477Z,7.93
2023-03-29T05:13:18.547Z,7.92
2023-03-29T05:14:18.396Z,7.95
2023-03-29T05:15:18.711Z,7.97
2023-03-29T05:16:19.152Z,7.95
2023-03-29T05:17:18.366Z,7.97
2023-03-29T05:18:18.512Z,7.97
2023-03-29T05:19:18.318Z,8.00
2023-03-29T05:20:18.583Z,7.98
2023-03-29T05:21:18.489Z,7.98
2023-03-29T05:22:18.278Z,7.98
2023-03-29T05:23:18.518Z,8.00
2023-03-29T05:24:18.269Z,8.00
2023-03-29T05:25:18.346Z,8.00
2023-03-29T05:26:18.247Z,7.98
2023-03-29T05:27:18.368Z,8.01
2023-03-29T05:28:18.236Z,8.00
2023-03-29T05:29:18.336Z,8.00
2023-03-29T05:30:18.218Z,7.98
2023-03-29T05:31:18.331Z,8.02
2023-03-29T05:32:18.163Z,8.05
2023-03-29T05:33:18.247Z,8.05
2023-03-29T05:34:18.146Z,8.05
2023-03-29T05:35:18.304Z,8.10
2023-03-29T05:36:18.204Z,8.08
2023-03-29T05:37:18.187Z,8.10
2023-03-29T05:38:18.095Z,8.07
2023-03-29T05:39:18.303Z,8.11
2023-03-29T05:40:18.091Z,8.11
2023-03-29T05:41:18.221Z,8.12
2023-03-29T05:42:18.187Z,8.15
2023-03-29T05:43:17.995Z,8.18
2023-03-29T05:44:18.137Z,8.16
2023-03-29T05:45:17.961Z,8.18
2023-03-29T05:46:18.207Z,8.20
2023-03-29T05:47:18.141Z,8.22
2023-03-29T05:48:17.985Z,8.26
2023-03-29T05:49:18.048Z,8.26
2023-03-29T05:50:17.914Z,8.28
2023-03-29T05:51:18.068Z,8.30
2023-03-29T05:52:18.088Z,8.36
2023-03-29T05:53:17.861Z,8.40
2023-03-29T05:54:18.015Z,8.43
2023-03-29T05:55:17.851Z,8.43
2023-03-29T05:56:18.033Z,8.43
2023-03-29T05:57:17.850Z,8.44
2023-03-29T05:58:18.062Z,8.45
2023-03-29T05:59:17.857Z,8.45
2023-03-29T06:00:17.960Z,8.47
2023-03-29T06:01:18.128Z,8.47
2023-03-29T06:02:18.224Z,8.48
2023-03-29T06:03:21.521Z,8.53
2023-03-29T06:04:17.809Z,8.53
2023-03-29T06:05:18.219Z,8.53
2023-03-29T06:06:17.864Z,8.58
2023-03-29T06:07:17.873Z,8.58
2023-03-29T06:08:17.779Z,8.61
2023-03-29T06:09:17.802Z,8.61
2023-03-29T06:10:17.697Z,8.65
2023-03-29T06:11:17.770Z,8.63
2023-03-29T06:12:17.645Z,8.66
2023-03-29T06:13:17.734Z,8.68
2023-03-29T06:14:17.623Z,8.70
2023-03-29T06:15:17.747Z,8.70
2023-03-29T06:16:17.600Z,8.73
2023-03-29T06:17:17.745Z,8.73
2023-03-29T06:18:17.537Z,8.73
2023-03-29T06:19:17.717Z,8.74
2023-03-29T06:20:17.528Z,8.76
2023-03-29T06:21:17.729Z,8.74
2023-03-29T06:22:17.540Z,8.76
2023-03-29T06:23:17.699Z,8.77
2023-03-29T06:24:17.549Z,8.79
2023-03-29T06:25:17.677Z,8.80
2023-03-29T06:26:17.450Z,8.79
2023-03-29T06:27:17.727Z,8.80
2023-03-29T06:28:17.431Z,8.83
2023-03-29T06:29:17.607Z,8.83
2023-03-29T06:30:17.393Z,8.83
2023-03-29T06:31:17.574Z,8.84
2023-03-29T06:32:17.398Z,8.86
2023-03-29T06:33:17.558Z,8.87
2023-03-29T06:34:17.505Z,8.86
2023-03-29T06:35:17.362Z,8.87
2023-03-29T06:36:17.497Z,8.89
2023-03-29T06:37:17.338Z,8.84
2023-03-29T06:38:17.479Z,8.84
2023-03-29T06:39:17.501Z,8.89
2023-03-29T06:40:17.279Z,8.87
2023-03-29T06:41:17.439Z,8.89
2023-03-29T06:42:21.691Z,8.87
2023-03-29T06:43:17.245Z,8.89
2023-03-29T06:44:17.398Z,8.89
2023-03-29T06:45:17.255Z,8.94
2023-03-29T06:46:17.367Z,8.94
2023-03-29T06:47:17.221Z,8.96
2023-03-29T06:48:17.347Z,8.98
2023-03-29T06:49:17.341Z,8.96
2023-03-29T06:50:17.314Z,8.98
2023-03-29T06:51:17.172Z,8.99
2023-03-29T06:52:17.281Z,9.01
2023-03-29T06:53:17.115Z,9.02
2023-03-29T06:54:17.192Z,9.01
2023-03-29T06:55:17.142Z,9.01
2023-03-29T06:56:17.261Z,9.04
2023-03-29T06:57:17.104Z,9.08
2023-03-29T06:58:17.226Z,9.10
2023-03-29T06:59:17.080Z,9.10
2023-03-29T07:00:17.342Z,9.17
2023-03-29T07:01:17.024Z,9.15
2023-03-29T07:02:17.206Z,9.17
2023-03-29T07:03:17.048Z,9.14
2023-03-29T07:04:17.227Z,9.14
2023-03-29T07:05:17.288Z,9.18
2023-03-29T07:06:17.079Z,9.21
2023-03-29T07:07:17.165Z,9.24
2023-03-29T07:08:16.937Z,9.31
2023-03-29T07:09:19.335Z,9.31
2023-03-29T07:10:16.892Z,9.38
2023-03-29T07:11:17.136Z,9.39
2023-03-29T07:12:16.879Z,9.48
2023-03-29T07:13:17.141Z,9.53
2023-03-29T07:14:16.848Z,9.58
2023-03-29T07:15:16.948Z,9.66
2023-03-29T07:16:16.844Z,9.71
2023-03-29T07:17:17.016Z,9.79
2023-03-29T07:18:16.769Z,9.84
2023-03-29T07:19:16.966Z,9.89
2023-03-29T07:20:16.765Z,9.91
2023-03-29T07:21:16.880Z,9.97
2023-03-29T07:22:16.754Z,10.04
2023-03-29T07:23:16.877Z,10.08
2023-03-29T07:24:16.746Z,10.11
2023-03-29T07:25:16.915Z,10.14
2023-03-29T07:26:29.037Z,10.18
2023-03-29T07:27:16.721Z,10.18
2023-03-29T07:28:16.806Z,10.22
2023-03-29T07:29:16.699Z,10.25
2023-03-29T07:30:16.885Z,10.23
2023-03-29T07:31:17.187Z,10.26
2023-03-29T07:32:16.676Z,10.26
2023-03-29T07:33:16.969Z,10.27
2023-03-29T07:34:16.566Z,10.26
2023-03-29T07:35:16.717Z,10.27
2023-03-29T07:36:16.733Z,10.25
2023-03-29T07:37:16.638Z,10.25
2023-03-29T07:38:16.691Z,10.23
2023-03-29T07:39:16.549Z,10.20
2023-03-29T07:40:16.656Z,10.20
2023-03-29T07:41:16.500Z,10.15
2023-03-29T07:42:16.615Z,10.12
2023-03-29T07:43:16.513Z,10.11
2023-03-29T07:44:16.618Z,10.08
2023-03-29T07:45:16.474Z,10.09
2023-03-29T07:46:16.583Z,10.09
2023-03-29T07:47:16.709Z,10.12
2023-03-29T07:48:16.766Z,10.14
2023-03-29T07:49:16.517Z,10.17
2023-03-29T07:50:16.506Z,10.22
2023-03-29T07:51:16.368Z,10.20
2023-03-29T07:52:16.483Z,10.25
2023-03-29T07:53:16.337Z,10.26
2023-03-29T07:54:16.480Z,10.26
2023-03-29T07:55:16.394Z,10.27
2023-03-29T07:56:16.505Z,10.30
2023-03-29T07:57:16.530Z,10.29
2023-03-29T07:58:16.264Z,10.32
2023-03-29T07:59:16.560Z,10.30
2023-03-29T08:00:17.086Z,10.32
2023-03-29T08:01:19.317Z,10.32
2023-03-29T08:02:16.555Z,10.33
2023-03-29T08:03:16.441Z,10.32
2023-03-29T08:04:16.404Z,10.33
2023-03-29T08:05:23.238Z,10.36
2023-03-29T08:06:16.306Z,10.36
2023-03-29T08:07:18.808Z,10.41
2023-03-29T08:08:16.158Z,10.41
2023-03-29T08:09:16.293Z,10.40
2023-03-29T08:10:16.190Z,10.38
2023-03-29T08:11:16.518Z,10.38
2023-03-29T08:12:16.108Z,10.36
2023-03-29T08:13:17.227Z,10.38
2023-03-29T08:14:16.403Z,10.42
2023-03-29T08:15:16.488Z,10.45
2023-03-29T08:16:16.398Z,10.47
2023-03-29T08:17:17.110Z,10.45
2023-03-29T08:18:16.489Z,10.48
2023-03-29T08:19:16.253Z,10.52
2023-03-29T08:20:16.182Z,10.56
2023-03-29T08:21:16.278Z,10.53
2023-03-29T08:22:16.145Z,10.52
2023-03-29T08:23:16.414Z,10.52
2023-03-29T08:24:15.944Z,10.52
2023-03-29T08:25:16.199Z,10.52
2023-03-29T08:26:15.932Z,10.47
2023-03-29T08:27:16.020Z,10.47
2023-03-29T08:28:16.022Z,10.48
2023-03-29T08:29:15.940Z,10.48
2023-03-29T08:30:16.130Z,10.48
2023-03-29T08:31:15.931Z,10.47
2023-03-29T08:32:16.049Z,10.48
2023-03-29T08:33:16.070Z,10.51
2023-03-29T08:34:15.788Z,10.55
2023-03-29T08:35:16.082Z,10.53
2023-03-29T08:36:15.781Z,10.55
2023-03-29T08:37:15.906Z,10.59
2023-03-29T08:38:15.884Z,10.59
2023-03-29T08:39:16.843Z,10.59
2023-03-29T08:40:15.901Z,10.63
2023-03-29T08:41:15.754Z,10.61
2023-03-29T08:42:15.930Z,10.63
2023-03-29T08:43:15.752Z,10.64
2023-03-29T08:44:15.825Z,10.64
2023-03-29T08:45:15.696Z,10.66
2023-03-29T08:46:15.939Z,10.67
2023-03-29T08:47:15.708Z,10.70
2023-03-29T08:48:15.744Z,10.71
2023-03-29T08:49:15.737Z,10.76
2023-03-29T08:50:16.093Z,10.81
2023-03-29T08:51:16.313Z,10.81
2023-03-29T08:52:16.807Z,10.88
2023-03-29T08:53:16.466Z,10.91
2023-03-29T08:54:16.318Z,10.92
2023-03-29T08:55:15.748Z,10.97
2023-03-29T08:56:15.858Z,11.03
2023-03-29T08:57:15.991Z,11.07
2023-03-29T08:58:15.665Z,11.06
2023-03-29T08:59:15.519Z,11.07
2023-03-29T09:00:15.628Z,11.09
2023-03-29T09:01:15.800Z,11.14
2023-03-29T09:02:15.752Z,11.15
2023-03-29T09:03:15.528Z,11.15
2023-03-29T09:04:15.653Z,11.14
2023-03-29T09:05:15.447Z,11.14
2023-03-29T09:06:15.562Z,11.15
2023-03-29T09:07:15.434Z,11.14
2023-03-29T09:08:15.504Z,11.14
2023-03-29T09:09:15.598Z,11.11
2023-03-29T09:10:15.332Z,11.18
2023-03-29T09:11:15.516Z,11.17
2023-03-29T09:12:15.515Z,11.17
2023-03-29T09:13:15.763Z,11.14
2023-03-29T09:14:15.317Z,11.07
2023-03-29T09:15:15.514Z,11.07
2023-03-29T09:16:15.357Z,11.10
2023-03-29T09:17:15.448Z,11.15
2023-03-29T09:18:15.338Z,11.14
2023-03-29T09:19:15.365Z,11.14
2023-03-29T09:20:15.913Z,11.11
2023-03-29T09:21:15.488Z,11.18
2023-03-29T09:22:15.267Z,11.22
2023-03-29T09:23:15.396Z,11.32
2023-03-29T09:24:15.192Z,11.40
2023-03-29T09:25:15.467Z,11.49
2023-03-29T09:26:21.275Z,11.54
2023-03-29T09:27:15.308Z,11.60
2023-03-29T09:28:15.096Z,11.64
2023-03-29T09:29:15.443Z,11.73
2023-03-29T09:30:15.082Z,11.78
2023-03-29T09:31:15.443Z,11.82
2023-03-29T09:32:15.071Z,11.85
2023-03-29T09:33:15.372Z,11.85
2023-03-29T09:34:16.017Z,11.83
2023-03-29T09:35:15.935Z,11.83
2023-03-29T09:36:15.058Z,11.83
2023-03-29T09:37:15.347Z,11.86
2023-03-29T09:38:14.989Z,11.91
2023-03-29T09:39:15.155Z,11.99
2023-03-29T09:40:15.096Z,12.05
2023-03-29T09:41:14.979Z,12.16
2023-03-29T09:42:15.657Z,12.32
2023-03-29T09:43:14.931Z,12.45
2023-03-29T09:44:28.205Z,12.64
2023-03-29T09:45:14.900Z,12.79
2023-03-29T09:46:15.566Z,12.92
2023-03-29T09:47:14.900Z,13.12
2023-03-29T09:48:15.115Z,13.29
2023-03-29T09:49:17.166Z,13.41
2023-03-29T09:50:29.620Z,13.52
2023-03-29T09:51:14.866Z,13.69
2023-03-29T09:52:15.046Z,13.71
2023-03-29T09:53:14.818Z,13.81
2023-03-29T09:54:15.777Z,13.97
2023-03-29T09:55:15.480Z,14.12
2023-03-29T09:56:15.405Z,14.28
2023-03-29T09:57:15.114Z,14.47
2023-03-29T09:58:15.578Z,14.68
2023-03-29T09:59:14.729Z,14.75
2023-03-29T10:00:15.003Z,14.78
2023-03-29T10:01:14.750Z,14.81
2023-03-29T10:02:14.954Z,14.84
2023-03-29T10:03:15.387Z,14.94
2023-03-29T10:04:15.008Z,15.09
2023-03-29T10:05:14.643Z,15.43
2023-03-29T10:06:14.754Z,15.69
2023-03-29T10:07:14.640Z,15.97
2023-03-29T10:08:16.160Z,16.30
2023-03-29T10:09:14.630Z,16.61
2023-03-29T10:10:14.698Z,17.04
2023-03-29T10:11:14.806Z,17.52
2023-03-29T10:12:14.516Z,17.87
2023-03-29T10:13:14.735Z,18.52
2023-03-29T10:14:14.511Z,19.14
2023-03-29T10:15:26.793Z,19.86
2023-03-29T10:16:14.491Z,20.99
2023-03-29T10:17:14.613Z,22.43
2023-03-29T10:18:14.563Z,23.78
2023-03-29T10:19:14.606Z,23.85
2023-03-29T10:20:14.608Z,24.08
2023-03-29T10:21:14.567Z,22.92
2023-03-29T10:22:14.411Z,22.06
2023-03-29T10:23:14.601Z,22.86
2023-03-29T10:24:14.559Z,23.20
2023-03-29T10:25:14.745Z,21.86
2023-03-29T10:26:14.821Z,21.06
2023-03-29T10:27:14.508Z,20.97
2023-03-29T10:28:14.363Z,20.82
2023-03-29T10:29:14.511Z,23.09
2023-03-29T10:30:14.382Z,24.42
2023-03-29T10:31:16.064Z,25.21
2023-03-29T10:32:14.317Z,25.46
2023-03-29T10:33:14.443Z,26.32
2023-03-29T10:34:14.265Z,26.89
2023-03-29T10:35:14.396Z,26.99
2023-03-29T10:36:14.293Z,25.10
2023-03-29T10:37:14.461Z,23.15
2023-03-29T10:38:14.203Z,21.72
2023-03-29T10:39:14.488Z,20.54
2023-03-29T10:40:14.294Z,19.48
2023-03-29T10:41:14.521Z,18.95
2023-03-29T10:42:14.542Z,18.69
2023-03-29T10:43:14.824Z,18.91
2023-03-29T10:44:14.317Z,19.77
2023-03-29T10:45:14.108Z,19.32
2023-03-29T10:46:15.004Z,18.91
2023-03-29T10:47:14.358Z,18.57
2023-03-29T10:48:14.165Z,18.20
2023-03-29T10:49:14.400Z,17.59
2023-03-29T10:50:14.190Z,17.34
2023-03-29T10:51:14.205Z,17.16
2023-03-29T10:52:14.030Z,17.18
2023-03-29T10:53:14.177Z,17.23
2023-03-29T10:54:14.020Z,17.19
2023-03-29T10:55:14.217Z,17.11
2023-03-29T10:56:13.978Z,16.94
2023-03-29T10:57:14.278Z,16.78
2023-03-29T10:58:13.948Z,16.67
2023-03-29T10:59:14.230Z,16.48
2023-03-29T11:00:14.133Z,16.31
2023-03-29T11:01:15.002Z,16.20
2023-03-29T11:02:14.352Z,16.07
2023-03-29T11:03:16.650Z,15.97
2023-03-29T11:04:15.139Z,15.96
2023-03-29T11:05:13.947Z,15.84
2023-03-29T11:06:13.863Z,15.76
2023-03-29T11:07:14.085Z,15.69
2023-03-29T11:08:14.342Z,15.51
2023-03-29T11:09:14.884Z,15.44
2023-03-29T11:10:13.817Z,15.39
2023-03-29T11:11:13.994Z,15.28
2023-03-29T11:12:16.244Z,15.19
2023-03-29T11:13:13.898Z,15.23
2023-03-29T11:14:13.847Z,15.25
2023-03-29T11:15:14.012Z,15.16
2023-03-29T11:16:13.859Z,15.09
2023-03-29T11:17:13.849Z,15.07
2023-03-29T11:18:13.734Z,15.07
2023-03-29T11:19:13.712Z,15.10
2023-03-29T11:20:13.873Z,15.11
2023-03-29T11:21:13.678Z,15.11
2023-03-29T11:22:13.893Z,15.17
2023-03-29T11:23:13.653Z,15.23
2023-03-29T11:24:13.842Z,15.20
2023-03-29T11:25:13.634Z,15.17
2023-03-29T11:26:13.793Z,15.13
2023-03-29T11:27:13.708Z,15.14
2023-03-29T11:28:13.709Z,15.09
2023-03-29T11:29:13.540Z,15.07
2023-03-29T11:30:13.786Z,14.98
2023-03-29T11:31:13.522Z,14.89
2023-03-29T11:32:13.629Z,14.84
2023-03-29T11:33:13.502Z,14.86
2023-03-29T11:34:13.662Z,14.81
2023-03-29T11:35:13.531Z,14.78
2023-03-29T11:36:13.757Z,14.78
2023-03-29T11:37:13.442Z,14.81
2023-03-29T11:38:13.582Z,14.75
2023-03-29T11:39:13.561Z,14.72
2023-03-29T11:40:13.534Z,14.68
2023-03-29T11:41:13.638Z,14.61
2023-03-29T11:42:13.521Z,14.55
2023-03-29T11:43:13.461Z,14.50
2023-03-29T11:44:13.518Z,14.43
2023-03-29T11:45:13.560Z,14.36
2023-03-29T11:46:13.920Z,14.33
2023-03-29T11:47:13.751Z,14.29
2023-03-29T11:48:13.689Z,14.29
2023-03-29T11:49:13.675Z,14.36
2023-03-29T11:50:13.514Z,14.42
2023-03-29T11:51:14.208Z,14.50
2023-03-29T11:52:13.834Z,14.55
2023-03-29T11:53:14.671Z,14.54
2023-03-29T11:54:14.101Z,14.52
2023-03-29T11:55:13.870Z,14.47
2023-03-29T11:56:13.589Z,14.43
2023-03-29T11:57:13.510Z,14.47
2023-03-29T11:58:13.384Z,14.50
2023-03-29T11:59:13.801Z,14.52
2023-03-29T12:00:13.863Z,14.54
2023-03-29T12:01:13.475Z,14.55
2023-03-29T12:02:13.394Z,14.58
2023-03-29T12:03:13.806Z,14.62
2023-03-29T12:04:13.713Z,14.68
2023-03-29T12:05:13.808Z,14.73
2023-03-29T12:06:13.121Z,14.86
2023-03-29T12:07:13.161Z,14.96
2023-03-29T12:08:13.125Z,15.06
2023-03-29T12:09:16.243Z,15.14
2023-03-29T12:10:13.200Z,15.11
2023-03-29T12:11:13.010Z,15.16
2023-03-29T12:12:13.166Z,15.21
2023-03-29T12:13:13.093Z,15.21
2023-03-29T12:14:13.245Z,15.20
2023-03-29T12:15:13.083Z,15.23
2023-03-29T12:16:13.028Z,15.27
2023-03-29T12:17:13.114Z,15.28
2023-03-29T12:18:12.948Z,15.27
2023-03-29T12:19:13.014Z,15.27
2023-03-29T12:20:13.098Z,15.21
2023-03-29T12:21:12.976Z,15.17
2023-03-29T12:22:13.161Z,15.13
2023-03-29T12:23:12.908Z,15.10
2023-03-29T12:24:13.086Z,15.01
2023-03-29T12:25:12.823Z,14.91
2023-03-29T12:26:13.182Z,14.84
2023-03-29T12:27:12.789Z,14.78
2023-03-29T12:28:13.010Z,14.73
2023-03-29T12:29:12.910Z,14.73
2023-03-29T12:30:12.945Z,14.69
2023-03-29T12:31:12.756Z,14.70
2023-03-29T12:32:12.870Z,14.72
2023-03-29T12:33:15.310Z,14.73
2023-03-29T12:34:12.966Z,14.75
2023-03-29T12:35:12.722Z,14.80
2023-03-29T12:36:12.825Z,14.83
2023-03-29T12:37:12.650Z,14.83
2023-03-29T12:38:12.798Z,14.72
2023-03-29T12:39:12.646Z,14.65
2023-03-29T12:40:12.756Z,14.60
2023-03-29T12:41:12.673Z,14.62
2023-03-29T12:42:12.794Z,14.64
2023-03-29T12:43:12.639Z,14.69
2023-03-29T12:44:12.936Z,14.72
2023-03-29T12:45:12.547Z,14.77
2023-03-29T12:46:12.961Z,14.78
2023-03-29T12:47:12.533Z,14.83
2023-03-29T12:48:12.670Z,14.80
2023-03-29T12:49:12.589Z,14.81
2023-03-29T12:50:12.642Z,14.81
2023-03-29T12:51:12.586Z,14.81
2023-03-29T12:52:12.574Z,14.83
2023-03-29T12:53:12.679Z,14.86
2023-03-29T12:54:12.501Z,14.88
2023-03-29T12:55:12.593Z,14.86
2023-03-29T12:56:12.512Z,14.88
2023-03-29T12:57:12.782Z,14.88
2023-03-29T12:58:12.448Z,14.84
2023-03-29T12:59:12.551Z,14.86
2023-03-29T13:00:12.429Z,14.83
2023-03-29T13:01:12.631Z,14.78
2023-03-29T13:02:12.457Z,14.77
2023-03-29T13:03:12.582Z,14.83
2023-03-29T13:04:12.356Z,14.86
2023-03-29T13:05:12.475Z,14.88
2023-03-29T13:06:12.342Z,14.89